sensor_id;sensor_type;location;lat;lon;timestamp;P1;durP1;ratioP1;P2;durP2;ratioP2
14592;SDS011;7383;52.354;9.756;2023-03-16T00:42:30;2.08;;;1.80;;
14592;SDS011;7383;52.354;9.756;2023-03-16T00:57:36;2.28;;;1.85;;
14592;SDS011;7383;52.354;9.756;2023-03-16T01:19:22;2.15;;;1.80;;
14592;SDS011;7383;52.354;9.756;2023-03-16T01:21:49;2.35;;;1.80;;
14592;SDS011;7383;52.354;9.756;2023-03-16T01:24:33;3.08;;;1.92;;
14592;SDS011;7383;52.354;9.756;2023-03-16T01:30:23;1.92;;;1.70;;
14592;SDS011;7383;52.354;9.756;2023-03-16T01:32:57;1.88;;;1.55;;
14592;SDS011;7383;52.354;9.756;2023-03-16T01:38:22;2.95;;;2.28;;
14592;SDS011;7383;52.354;9.756;2023-03-16T01:41:38;2.10;;;1.88;;
14592;SDS011;7383;52.354;9.756;2023-03-16T01:43:52;2.00;;;1.80;;
14592;SDS011;7383;52.354;9.756;2023-03-16T01:46:28;2.20;;;1.90;;
14592;SDS011;7383;52.354;9.756;2023-03-16T01:49:09;1.83;;;1.73;;
14592;SDS011;7383;52.354;9.756;2023-03-16T02:46:41;1.98;;;1.75;;
14592;SDS011;7383;52.354;9.756;2023-03-16T02:49:10;1.80;;;1.70;;
14592;SDS011;7383;52.354;9.756;2023-03-16T02:51:40;2.72;;;1.80;;
14592;SDS011;7383;52.354;9.756;2023-03-16T02:54:07;2.03;;;1.83;;
14592;SDS011;7383;52.354;9.756;2023-03-16T03:14:29;1.88;;;1.77;;
14592;SDS011;7383;52.354;9.756;2023-03-16T03:16:58;1.73;;;1.60;;
14592;SDS011;7383;52.354;9.756;2023-03-16T03:19:28;2.30;;;1.92;;
14592;SDS011;7383;52.354;9.756;2023-03-16T05:26:04;1.45;;;1.33;;
14592;SDS011;7383;52.354;9.756;2023-03-16T05:28:46;3.33;;;1.60;;
14592;SDS011;7383;52.354;9.756;2023-03-16T05:51:02;1.60;;;1.50;;
14592;SDS011;7383;52.354;9.756;2023-03-16T05:53:30;2.08;;;1.85;;
14592;SDS011;7383;52.354;9.756;2023-03-16T05:55:56;2.28;;;2.10;;
14592;SDS011;7383;52.354;9.756;2023-03-16T05:58:23;1.92;;;1.48;;
14592;SDS011;7383;52.354;9.756;2023-03-16T06:00:49;1.50;;;1.40;;
14592;SDS011;7383;52.354;9.756;2023-03-16T06:03:17;1.67;;;1.40;;
14592;SDS011;7383;52.354;9.756;2023-03-16T06:05:47;2.25;;;1.42;;
14592;SDS011;7383;52.354;9.756;2023-03-16T06:08:25;1.45;;;1.40;;
14592;SDS011;7383;52.354;9.756;2023-03-16T06:13:31;1.45;;;1.33;;
14592;SDS011;7383;52.354;9.756;2023-03-16T06:16:30;2.00;;;1.58;;
14592;SDS011;7383;52.354;9.756;2023-03-16T06:19:10;3.65;;;1.65;;
14592;SDS011;7383;52.354;9.756;2023-03-16T06:21:44;2.58;;;1.80;;
14592;SDS011;7383;52.354;9.756;2023-03-16T06:24:15;1.75;;;1.63;;
14592;SDS011;7383;52.354;9.756;2023-03-16T06:26:43;1.70;;;1.60;;
14592;SDS011;7383;52.354;9.756;2023-03-16T06:29:09;1.60;;;1.50;;
14592;SDS011;7383;52.354;9.756;2023-03-16T06:31:35;1.98;;;1.70;;
14592;SDS011;7383;52.354;9.756;2023-03-16T06:34:02;1.98;;;1.60;;
14592;SDS011;7383;52.354;9.756;2023-03-16T06:36:30;2.20;;;2.00;;
14592;SDS011;7383;52.354;9.756;2023-03-16T06:38:58;1.77;;;1.52;;
14592;SDS011;7383;52.354;9.756;2023-03-16T06:41:29;3.10;;;2.20;;
14592;SDS011;7383;52.354;9.756;2023-03-16T06:43:56;2.50;;;1.80;;
14592;SDS011;7383;52.354;9.756;2023-03-16T06:46:22;2.35;;;1.80;;
14592;SDS011;7383;52.354;9.756;2023-03-16T06:48:48;1.90;;;1.80;;
14592;SDS011;7383;52.354;9.756;2023-03-16T06:51:15;1.75;;;1.65;;
14592;SDS011;7383;52.354;9.756;2023-03-16T06:53:41;3.13;;;1.70;;
14592;SDS011;7383;52.354;9.756;2023-03-16T06:56:07;1.70;;;1.60;;
14592;SDS011;7383;52.354;9.756;2023-03-16T06:58:37;1.48;;;1.27;;
14592;SDS011;7383;52.354;9.756;2023-03-16T07:01:04;2.17;;;1.60;;
14592;SDS011;7383;52.354;9.756;2023-03-16T07:03:30;1.73;;;1.63;;
14592;SDS011;7383;52.354;9.756;2023-03-16T07:05:57;2.05;;;1.70;;
14592;SDS011;7383;52.354;9.756;2023-03-16T07:08:23;2.83;;;2.00;;
14592;SDS011;7383;52.354;9.756;2023-03-16T07:10:49;1.50;;;1.40;;
14592;SDS011;7383;52.354;9.756;2023-03-16T07:13:15;1.65;;;1.55;;
14592;SDS011;7383;52.354;9.756;2023-03-16T07:15:43;1.92;;;1.67;;
14592;SDS011;7383;52.354;9.756;2023-03-16T07:18:09;2.22;;;1.77;;
14592;SDS011;7383;52.354;9.756;2023-03-16T07:20:36;2.90;;;1.63;;
14592;SDS011;7383;52.354;9.756;2023-03-16T07:23:02;2.15;;;1.70;;
14592;SDS011;7383;52.354;9.756;2023-03-16T07:25:29;3.03;;;2.00;;
14592;SDS011;7383;52.354;9.756;2023-03-16T07:28:12;2.67;;;2.10;;
14592;SDS011;7383;52.354;9.756;2023-03-16T07:30:42;1.85;;;1.75;;
14592;SDS011;7383;52.354;9.756;2023-03-16T07:33:11;1.88;;;1.77;;
14592;SDS011;7383;52.354;9.756;2023-03-16T07:35:37;2.20;;;2.03;;
14592;SDS011;7383;52.354;9.756;2023-03-16T07:38:04;2.40;;;2.17;;
14592;SDS011;7383;52.354;9.756;2023-03-16T07:40:30;2.28;;;2.08;;
14592;SDS011;7383;52.354;9.756;2023-03-16T07:42:58;2.22;;;2.13;;
14592;SDS011;7383;52.354;9.756;2023-03-16T07:48:19;2.05;;;1.75;;
14592;SDS011;7383;52.354;9.756;2023-03-16T07:50:46;1.60;;;1.50;;
14592;SDS011;7383;52.354;9.756;2023-03-16T07:53:13;1.75;;;1.58;;
14592;SDS011;7383;52.354;9.756;2023-03-16T07:55:39;2.15;;;1.90;;
14592;SDS011;7383;52.354;9.756;2023-03-16T07:58:06;2.17;;;1.80;;
14592;SDS011;7383;52.354;9.756;2023-03-16T08:00:32;2.88;;;1.67;;
14592;SDS011;7383;52.354;9.756;2023-03-16T08:02:59;2.60;;;1.50;;
14592;SDS011;7383;52.354;9.756;2023-03-16T08:05:27;1.75;;;1.45;;
14592;SDS011;7383;52.354;9.756;2023-03-16T08:07:54;1.35;;;1.25;;
14592;SDS011;7383;52.354;9.756;2023-03-16T08:10:21;1.60;;;1.48;;
14592;SDS011;7383;52.354;9.756;2023-03-16T08:12:47;1.38;;;1.27;;
14592;SDS011;7383;52.354;9.756;2023-03-16T08:15:13;1.65;;;1.40;;
14592;SDS011;7383;52.354;9.756;2023-03-16T08:17:42;1.70;;;1.60;;
14592;SDS011;7383;52.354;9.756;2023-03-16T08:20:10;2.53;;;1.50;;
14592;SDS011;7383;52.354;9.756;2023-03-16T08:22:40;2.97;;;1.77;;
14592;SDS011;7383;52.354;9.756;2023-03-16T08:25:09;1.60;;;1.50;;
14592;SDS011;7383;52.354;9.756;2023-03-16T08:27:36;1.70;;;1.27;;
14592;SDS011;7383;52.354;9.756;2023-03-16T08:30:03;2.05;;;1.42;;
14592;SDS011;7383;52.354;9.756;2023-03-16T08:32:31;1.50;;;1.40;;
14592;SDS011;7383;52.354;9.756;2023-03-16T08:34:58;2.70;;;1.45;;
14592;SDS011;7383;52.354;9.756;2023-03-16T08:37:27;1.45;;;1.35;;
14592;SDS011;7383;52.354;9.756;2023-03-16T08:39:55;1.40;;;1.30;;
14592;SDS011;7383;52.354;9.756;2023-03-16T08:42:24;2.42;;;1.20;;
14592;SDS011;7383;52.354;9.756;2023-03-16T08:44:58;1.88;;;1.42;;
14592;SDS011;7383;52.354;9.756;2023-03-16T08:48:34;1.30;;;1.20;;
14592;SDS011;7383;52.354;9.756;2023-03-16T08:50:23;1.70;;;1.20;;
14592;SDS011;7383;52.354;9.756;2023-03-16T08:52:53;1.80;;;1.20;;
14592;SDS011;7383;52.354;9.756;2023-03-16T08:58:16;1.92;;;1.40;;
14592;SDS011;7383;52.354;9.756;2023-03-16T09:00:45;1.35;;;1.25;;
14592;SDS011;7383;52.354;9.756;2023-03-16T09:03:12;1.77;;;1.40;;
14592;SDS011;7383;52.354;9.756;2023-03-16T09:05:39;1.42;;;1.20;;
14592;SDS011;7383;52.354;9.756;2023-03-16T09:08:06;2.53;;;1.35;;
14592;SDS011;7383;52.354;9.756;2023-03-16T09:10:32;2.22;;;1.40;;
14592;SDS011;7383;52.354;9.756;2023-03-16T09:13:02;2.10;;;1.45;;
14592;SDS011;7383;52.354;9.756;2023-03-16T09:15:39;2.50;;;1.48;;
14592;SDS011;7383;52.354;9.756;2023-03-16T09:18:06;3.70;;;1.75;;
14592;SDS011;7383;52.354;9.756;2023-03-16T09:20:34;1.35;;;1.20;;
14592;SDS011;7383;52.354;9.756;2023-03-16T09:23:01;1.83;;;1.27;;
14592;SDS011;7383;52.354;9.756;2023-03-16T09:25:31;1.77;;;1.42;;
14592;SDS011;7383;52.354;9.756;2023-03-16T09:28:01;1.70;;;1.40;;
14592;SDS011;7383;52.354;9.756;2023-03-16T09:30:31;1.30;;;1.20;;
14592;SDS011;7383;52.354;9.756;2023-03-16T09:33:01;2.08;;;1.30;;
14592;SDS011;7383;52.354;9.756;2023-03-16T09:35:28;1.98;;;1.35;;
14592;SDS011;7383;52.354;9.756;2023-03-16T09:37:58;1.17;;;1.00;;
14592;SDS011;7383;52.354;9.756;2023-03-16T09:40:25;1.75;;;1.20;;
14592;SDS011;7383;52.354;9.756;2023-03-16T09:42:54;1.83;;;1.27;;
14592;SDS011;7383;52.354;9.756;2023-03-16T09:48:37;2.20;;;1.10;;
14592;SDS011;7383;52.354;9.756;2023-03-16T09:51:06;2.28;;;1.15;;
14592;SDS011;7383;52.354;9.756;2023-03-16T09:53:34;1.85;;;0.98;;
14592;SDS011;7383;52.354;9.756;2023-03-16T09:56:13;1.30;;;1.20;;
14592;SDS011;7383;52.354;9.756;2023-03-16T09:58:42;0.95;;;0.90;;
14592;SDS011;7383;52.354;9.756;2023-03-16T10:01:11;1.50;;;1.20;;
14592;SDS011;7383;52.354;9.756;2023-03-16T10:06:47;1.98;;;1.10;;
14592;SDS011;7383;52.354;9.756;2023-03-16T10:09:27;2.28;;;1.17;;
14592;SDS011;7383;52.354;9.756;2023-03-16T10:11:57;1.52;;;1.10;;
14592;SDS011;7383;52.354;9.756;2023-03-16T10:14:26;1.20;;;0.80;;
14592;SDS011;7383;52.354;9.756;2023-03-16T10:16:57;1.95;;;0.93;;
14592;SDS011;7383;52.354;9.756;2023-03-16T10:19:40;2.55;;;1.27;;
14592;SDS011;7383;52.354;9.756;2023-03-16T10:22:14;1.95;;;1.10;;
14592;SDS011;7383;52.354;9.756;2023-03-16T10:27:40;1.45;;;1.23;;
14592;SDS011;7383;52.354;9.756;2023-03-16T10:30:21;0.90;;;0.90;;
14592;SDS011;7383;52.354;9.756;2023-03-16T10:32:52;1.42;;;1.05;;
14592;SDS011;7383;52.354;9.756;2023-03-16T10:35:21;1.45;;;0.95;;
14592;SDS011;7383;52.354;9.756;2023-03-16T10:37:54;1.35;;;1.13;;
14592;SDS011;7383;52.354;9.756;2023-03-16T10:40:20;1.20;;;1.10;;
14592;SDS011;7383;52.354;9.756;2023-03-16T10:42:48;2.05;;;1.00;;
14592;SDS011;7383;52.354;9.756;2023-03-16T10:45:22;1.40;;;1.30;;
14592;SDS011;7383;52.354;9.756;2023-03-16T10:47:52;1.67;;;1.00;;
14592;SDS011;7383;52.354;9.756;2023-03-16T10:50:22;1.40;;;1.20;;
14592;SDS011;7383;52.354;9.756;2023-03-16T10:52:57;1.35;;;1.08;;
14592;SDS011;7383;52.354;9.756;2023-03-16T10:55:29;2.38;;;1.58;;
14592;SDS011;7383;52.354;9.756;2023-03-16T10:58:06;1.90;;;1.17;;
14592;SDS011;7383;52.354;9.756;2023-03-16T11:00:34;1.85;;;1.40;;
14592;SDS011;7383;52.354;9.756;2023-03-16T11:03:18;1.27;;;1.17;;
14592;SDS011;7383;52.354;9.756;2023-03-16T11:22:41;1.27;;;1.17;;
14592;SDS011;7383;52.354;9.756;2023-03-16T11:25:11;1.67;;;1.13;;
14592;SDS011;7383;52.354;9.756;2023-03-16T11:27:41;1.25;;;1.00;;
14592;SDS011;7383;52.354;9.756;2023-03-16T11:30:40;1.73;;;1.20;;
14592;SDS011;7383;52.354;9.756;2023-03-16T11:33:05;1.65;;;1.20;;
14592;SDS011;7383;52.354;9.756;2023-03-16T11:35:41;2.00;;;1.42;;
14592;SDS011;7383;52.354;9.756;2023-03-16T11:38:15;1.67;;;1.35;;
14592;SDS011;7383;52.354;9.756;2023-03-16T11:41:03;1.20;;;1.10;;
14592;SDS011;7383;52.354;9.756;2023-03-16T11:44:01;1.10;;;1.10;;
14592;SDS011;7383;52.354;9.756;2023-03-16T11:46:46;1.52;;;1.35;;
14592;SDS011;7383;52.354;9.756;2023-03-16T11:49:47;1.00;;;1.00;;
14592;SDS011;7383;52.354;9.756;2023-03-16T11:52:23;0.90;;;0.90;;
14592;SDS011;7383;52.354;9.756;2023-03-16T11:55:00;2.10;;;1.30;;
14592;SDS011;7383;52.354;9.756;2023-03-16T12:00:46;1.90;;;1.20;;
14592;SDS011;7383;52.354;9.756;2023-03-16T12:04:26;1.50;;;1.40;;
14592;SDS011;7383;52.354;9.756;2023-03-16T12:06:42;2.35;;;1.52;;
14592;SDS011;7383;52.354;9.756;2023-03-16T12:09:31;1.52;;;1.00;;
14592;SDS011;7383;52.354;9.756;2023-03-16T12:12:04;1.15;;;1.10;;
14592;SDS011;7383;52.354;9.756;2023-03-16T12:17:33;2.97;;;1.13;;
14592;SDS011;7383;52.354;9.756;2023-03-16T12:20:56;1.90;;;0.98;;
14592;SDS011;7383;52.354;9.756;2023-03-16T12:23:28;1.00;;;0.90;;
14592;SDS011;7383;52.354;9.756;2023-03-16T12:26:03;1.08;;;0.70;;
14592;SDS011;7383;52.354;9.756;2023-03-16T12:28:30;1.48;;;1.05;;
14592;SDS011;7383;52.354;9.756;2023-03-16T12:31:06;0.85;;;0.82;;
14592;SDS011;7383;52.354;9.756;2023-03-16T12:33:44;1.02;;;0.90;;
14592;SDS011;7383;52.354;9.756;2023-03-16T12:39:16;1.10;;;1.00;;
14592;SDS011;7383;52.354;9.756;2023-03-16T12:41:49;1.08;;;0.82;;
14592;SDS011;7383;52.354;9.756;2023-03-16T12:44:25;1.38;;;0.80;;
14592;SDS011;7383;52.354;9.756;2023-03-16T12:46:54;0.55;;;0.55;;
14592;SDS011;7383;52.354;9.756;2023-03-16T12:49:23;0.80;;;0.80;;
14592;SDS011;7383;52.354;9.756;2023-03-16T12:51:57;1.13;;;1.00;;
14592;SDS011;7383;52.354;9.756;2023-03-16T12:54:25;1.40;;;1.30;;
14592;SDS011;7383;52.354;9.756;2023-03-16T12:57:06;1.20;;;1.10;;
14592;SDS011;7383;52.354;9.756;2023-03-16T12:59:43;1.75;;;1.02;;
14592;SDS011;7383;52.354;9.756;2023-03-16T13:02:13;1.38;;;1.20;;
14592;SDS011;7383;52.354;9.756;2023-03-16T13:04:56;1.00;;;1.00;;
14592;SDS011;7383;52.354;9.756;2023-03-16T13:07:24;1.25;;;1.02;;
14592;SDS011;7383;52.354;9.756;2023-03-16T13:09:57;0.88;;;0.75;;
14592;SDS011;7383;52.354;9.756;2023-03-16T13:12:39;1.40;;;0.93;;
14592;SDS011;7383;52.354;9.756;2023-03-16T13:15:14;1.38;;;0.93;;
14592;SDS011;7383;52.354;9.756;2023-03-16T13:17:41;1.05;;;0.80;;
14592;SDS011;7383;52.354;9.756;2023-03-16T13:20:23;1.08;;;0.75;;
14592;SDS011;7383;52.354;9.756;2023-03-16T13:22:50;0.98;;;0.70;;
14592;SDS011;7383;52.354;9.756;2023-03-16T13:25:38;0.80;;;0.80;;
14592;SDS011;7383;52.354;9.756;2023-03-16T13:28:07;0.82;;;0.65;;
14592;SDS011;7383;52.354;9.756;2023-03-16T13:30:44;0.70;;;0.70;;
14592;SDS011;7383;52.354;9.756;2023-03-16T13:33:42;0.82;;;0.80;;
14592;SDS011;7383;52.354;9.756;2023-03-16T13:36:18;0.70;;;0.70;;
14592;SDS011;7383;52.354;9.756;2023-03-16T13:39:57;0.82;;;0.82;;
14592;SDS011;7383;52.354;9.756;2023-03-16T13:54:41;1.70;;;1.00;;
14592;SDS011;7383;52.354;9.756;2023-03-16T14:11:39;0.80;;;0.80;;
14592;SDS011;7383;52.354;9.756;2023-03-16T14:14:14;1.10;;;0.80;;
14592;SDS011;7383;52.354;9.756;2023-03-16T14:16:42;0.70;;;0.70;;
14592;SDS011;7383;52.354;9.756;2023-03-16T14:19:13;0.80;;;0.80;;
14592;SDS011;7383;52.354;9.756;2023-03-16T14:21:43;0.80;;;0.80;;
14592;SDS011;7383;52.354;9.756;2023-03-16T14:24:18;0.95;;;0.85;;
14592;SDS011;7383;52.354;9.756;2023-03-16T14:26:50;1.00;;;0.90;;
14592;SDS011;7383;52.354;9.756;2023-03-16T14:29:19;0.70;;;0.70;;
14592;SDS011;7383;52.354;9.756;2023-03-16T14:31:47;0.88;;;0.60;;
14592;SDS011;7383;52.354;9.756;2023-03-16T14:34:21;0.73;;;0.73;;
14592;SDS011;7383;52.354;9.756;2023-03-16T14:36:47;0.90;;;0.90;;
14592;SDS011;7383;52.354;9.756;2023-03-16T14:39:14;1.05;;;1.05;;
14592;SDS011;7383;52.354;9.756;2023-03-16T14:41:42;0.73;;;0.70;;
14592;SDS011;7383;52.354;9.756;2023-03-16T14:44:16;0.60;;;0.60;;
14592;SDS011;7383;52.354;9.756;2023-03-16T14:46:43;0.68;;;0.68;;
14592;SDS011;7383;52.354;9.756;2023-03-16T14:49:15;0.82;;;0.82;;
14592;SDS011;7383;52.354;9.756;2023-03-16T14:51:44;1.35;;;0.80;;
14592;SDS011;7383;52.354;9.756;2023-03-16T14:54:16;0.88;;;0.70;;
14592;SDS011;7383;52.354;9.756;2023-03-16T14:56:53;0.70;;;0.70;;
14592;SDS011;7383;52.354;9.756;2023-03-16T14:59:31;1.00;;;0.85;;
14592;SDS011;7383;52.354;9.756;2023-03-16T15:02:13;1.02;;;0.93;;
14592;SDS011;7383;52.354;9.756;2023-03-16T15:04:44;1.02;;;0.90;;
14592;SDS011;7383;52.354;9.756;2023-03-16T15:07:26;1.40;;;1.30;;
14592;SDS011;7383;52.354;9.756;2023-03-16T15:09:56;1.40;;;1.30;;
14592;SDS011;7383;52.354;9.756;2023-03-16T15:12:24;1.25;;;1.15;;
14592;SDS011;7383;52.354;9.756;2023-03-16T15:14:52;1.20;;;1.10;;
14592;SDS011;7383;52.354;9.756;2023-03-16T15:17:48;1.20;;;1.10;;
14592;SDS011;7383;52.354;9.756;2023-03-16T15:20:18;1.30;;;1.15;;
14592;SDS011;7383;52.354;9.756;2023-03-16T15:22:45;0.95;;;0.95;;
14592;SDS011;7383;52.354;9.756;2023-03-16T15:25:20;1.38;;;1.17;;
14592;SDS011;7383;52.354;9.756;2023-03-16T15:27:51;1.05;;;1.05;;
14592;SDS011;7383;52.354;9.756;2023-03-16T15:30:21;1.20;;;1.20;;
14592;SDS011;7383;52.354;9.756;2023-03-16T15:33:04;1.02;;;1.02;;
14592;SDS011;7383;52.354;9.756;2023-03-16T15:35:34;1.13;;;1.00;;
14592;SDS011;7383;52.354;9.756;2023-03-16T15:38:10;1.42;;;1.30;;
14592;SDS011;7383;52.354;9.756;2023-03-16T15:40:38;1.30;;;1.20;;
14592;SDS011;7383;52.354;9.756;2023-03-16T15:43:13;0.93;;;0.93;;
14592;SDS011;7383;52.354;9.756;2023-03-16T15:45:49;1.00;;;1.00;;
14592;SDS011;7383;52.354;9.756;2023-03-16T15:48:38;1.45;;;1.35;;
14592;SDS011;7383;52.354;9.756;2023-03-16T15:51:12;2.47;;;1.50;;
14592;SDS011;7383;52.354;9.756;2023-03-16T15:53:46;1.48;;;1.05;;
14592;SDS011;7383;52.354;9.756;2023-03-16T15:56:17;1.48;;;1.30;;
14592;SDS011;7383;52.354;9.756;2023-03-16T15:58:54;1.70;;;1.27;;
14592;SDS011;7383;52.354;9.756;2023-03-16T16:01:52;1.25;;;1.25;;
14592;SDS011;7383;52.354;9.756;2023-03-16T16:04:20;1.15;;;1.10;;
14592;SDS011;7383;52.354;9.756;2023-03-16T16:06:48;1.08;;;1.05;;
14592;SDS011;7383;52.354;9.756;2023-03-16T16:09:15;1.30;;;1.20;;
14592;SDS011;7383;52.354;9.756;2023-03-16T16:11:42;1.60;;;1.40;;
14592;SDS011;7383;52.354;9.756;2023-03-16T16:14:11;1.20;;;1.10;;
14592;SDS011;7383;52.354;9.756;2023-03-16T16:16:40;1.02;;;1.02;;
14592;SDS011;7383;52.354;9.756;2023-03-16T16:19:11;1.42;;;1.02;;
14592;SDS011;7383;52.354;9.756;2023-03-16T16:21:37;1.60;;;1.50;;
14592;SDS011;7383;52.354;9.756;2023-03-16T16:24:04;1.30;;;1.20;;
14592;SDS011;7383;52.354;9.756;2023-03-16T16:26:32;1.20;;;1.10;;
14592;SDS011;7383;52.354;9.756;2023-03-16T16:29:10;1.25;;;1.00;;
14592;SDS011;7383;52.354;9.756;2023-03-16T16:31:37;1.60;;;1.23;;
14592;SDS011;7383;52.354;9.756;2023-03-16T16:34:04;1.25;;;1.00;;
14592;SDS011;7383;52.354;9.756;2023-03-16T16:36:32;1.67;;;1.17;;
14592;SDS011;7383;52.354;9.756;2023-03-16T16:38:58;1.20;;;1.00;;
14592;SDS011;7383;52.354;9.756;2023-03-16T16:41:31;0.82;;;0.80;;
14592;SDS011;7383;52.354;9.756;2023-03-16T16:44:01;1.00;;;1.00;;
14592;SDS011;7383;52.354;9.756;2023-03-16T16:46:32;0.90;;;0.90;;
14592;SDS011;7383;52.354;9.756;2023-03-16T16:49:05;0.70;;;0.70;;
14592;SDS011;7383;52.354;9.756;2023-03-16T16:51:36;0.90;;;0.90;;
14592;SDS011;7383;52.354;9.756;2023-03-16T16:54:06;0.70;;;0.70;;
14592;SDS011;7383;52.354;9.756;2023-03-16T16:56:38;1.02;;;1.02;;
14592;SDS011;7383;52.354;9.756;2023-03-16T16:59:09;1.10;;;1.08;;
14592;SDS011;7383;52.354;9.756;2023-03-16T17:01:38;0.85;;;0.85;;
14592;SDS011;7383;52.354;9.756;2023-03-16T17:04:10;0.82;;;0.82;;
14592;SDS011;7383;52.354;9.756;2023-03-16T17:06:39;1.10;;;1.00;;
14592;SDS011;7383;52.354;9.756;2023-03-16T17:09:08;1.13;;;1.13;;
14592;SDS011;7383;52.354;9.756;2023-03-16T17:11:36;1.02;;;1.02;;
14592;SDS011;7383;52.354;9.756;2023-03-16T17:14:03;0.80;;;0.80;;
14592;SDS011;7383;52.354;9.756;2023-03-16T17:16:30;1.10;;;1.00;;
14592;SDS011;7383;52.354;9.756;2023-03-16T17:18:57;1.20;;;1.10;;
14592;SDS011;7383;52.354;9.756;2023-03-16T17:21:24;0.93;;;0.93;;
14592;SDS011;7383;52.354;9.756;2023-03-16T17:23:55;0.88;;;0.88;;
14592;SDS011;7383;52.354;9.756;2023-03-16T17:26:23;0.70;;;0.70;;
14592;SDS011;7383;52.354;9.756;2023-03-16T17:28:50;0.90;;;0.90;;
14592;SDS011;7383;52.354;9.756;2023-03-16T17:31:20;1.10;;;1.00;;
14592;SDS011;7383;52.354;9.756;2023-03-16T17:33:47;1.15;;;1.05;;
14592;SDS011;7383;52.354;9.756;2023-03-16T17:36:16;1.00;;;1.00;;
14592;SDS011;7383;52.354;9.756;2023-03-16T17:38:43;1.40;;;1.30;;
14592;SDS011;7383;52.354;9.756;2023-03-16T17:41:17;0.95;;;0.95;;
14592;SDS011;7383;52.354;9.756;2023-03-16T17:43:45;1.00;;;1.00;;
14592;SDS011;7383;52.354;9.756;2023-03-16T17:46:18;1.20;;;1.13;;
14592;SDS011;7383;52.354;9.756;2023-03-16T17:48:45;1.60;;;1.42;;
14592;SDS011;7383;52.354;9.756;2023-03-16T17:51:12;1.05;;;1.05;;
14592;SDS011;7383;52.354;9.756;2023-03-16T17:53:40;1.25;;;1.15;;
14592;SDS011;7383;52.354;9.756;2023-03-16T17:56:15;1.50;;;1.10;;
14592;SDS011;7383;52.354;9.756;2023-03-16T17:58:43;1.25;;;1.17;;
14592;SDS011;7383;52.354;9.756;2023-03-16T18:01:09;1.35;;;1.25;;
14592;SDS011;7383;52.354;9.756;2023-03-16T18:03:37;1.20;;;1.20;;
14592;SDS011;7383;52.354;9.756;2023-03-16T18:06:07;1.55;;;1.40;;
14592;SDS011;7383;52.354;9.756;2023-03-16T18:08:35;1.42;;;1.33;;
14592;SDS011;7383;52.354;9.756;2023-03-16T18:11:03;0.90;;;0.90;;
14592;SDS011;7383;52.354;9.756;2023-03-16T18:13:41;1.20;;;1.10;;
14592;SDS011;7383;52.354;9.756;2023-03-16T18:16:09;1.63;;;1.30;;
14592;SDS011;7383;52.354;9.756;2023-03-16T18:18:39;1.10;;;1.10;;
14592;SDS011;7383;52.354;9.756;2023-03-16T18:21:11;1.35;;;1.25;;
14592;SDS011;7383;52.354;9.756;2023-03-16T18:23:50;1.42;;;1.33;;
14592;SDS011;7383;52.354;9.756;2023-03-16T18:26:17;1.08;;;1.08;;
14592;SDS011;7383;52.354;9.756;2023-03-16T18:28:45;1.20;;;1.10;;
14592;SDS011;7383;52.354;9.756;2023-03-16T18:31:17;1.10;;;1.10;;
14592;SDS011;7383;52.354;9.756;2023-03-16T18:33:54;1.00;;;1.00;;
14592;SDS011;7383;52.354;9.756;2023-03-16T18:36:22;1.20;;;1.20;;
14592;SDS011;7383;52.354;9.756;2023-03-16T18:38:51;1.48;;;1.38;;
14592;SDS011;7383;52.354;9.756;2023-03-16T18:41:21;1.20;;;1.20;;
14592;SDS011;7383;52.354;9.756;2023-03-16T18:43:56;1.92;;;1.55;;
14592;SDS011;7383;52.354;9.756;2023-03-16T18:46:28;2.75;;;1.42;;
14592;SDS011;7383;52.354;9.756;2023-03-16T18:49:17;1.50;;;1.40;;
14592;SDS011;7383;52.354;9.756;2023-03-16T18:51:53;1.40;;;1.30;;
14592;SDS011;7383;52.354;9.756;2023-03-16T18:54:28;1.58;;;1.52;;
14592;SDS011;7383;52.354;9.756;2023-03-16T18:56:56;1.63;;;1.20;;
14592;SDS011;7383;52.354;9.756;2023-03-16T18:59:28;1.70;;;1.60;;
14592;SDS011;7383;52.354;9.756;2023-03-16T19:01:59;1.70;;;1.60;;
14592;SDS011;7383;52.354;9.756;2023-03-16T19:04:42;1.42;;;1.42;;
14592;SDS011;7383;52.354;9.756;2023-03-16T19:07:34;1.38;;;1.27;;
14592;SDS011;7383;52.354;9.756;2023-03-16T19:10:18;1.38;;;1.27;;
14592;SDS011;7383;52.354;9.756;2023-03-16T19:21:46;1.40;;;1.30;;
14592;SDS011;7383;52.354;9.756;2023-03-16T19:24:32;1.05;;;1.05;;
14592;SDS011;7383;52.354;9.756;2023-03-16T19:27:02;1.30;;;1.20;;
14592;SDS011;7383;52.354;9.756;2023-03-16T19:29:36;1.25;;;1.15;;
14592;SDS011;7383;52.354;9.756;2023-03-16T19:32:10;1.67;;;1.58;;
14592;SDS011;7383;52.354;9.756;2023-03-16T19:34:46;1.80;;;1.70;;
14592;SDS011;7383;52.354;9.756;2023-03-16T19:40:05;3.88;;;3.22;;
14592;SDS011;7383;52.354;9.756;2023-03-16T19:42:52;2.92;;;2.72;;
14592;SDS011;7383;52.354;9.756;2023-03-16T19:48:31;2.17;;;1.50;;
14592;SDS011;7383;52.354;9.756;2023-03-16T19:51:04;1.10;;;1.10;;
14592;SDS011;7383;52.354;9.756;2023-03-16T19:53:50;1.60;;;1.40;;
14592;SDS011;7383;52.354;9.756;2023-03-16T19:56:22;1.52;;;1.42;;
14592;SDS011;7383;52.354;9.756;2023-03-16T19:58:55;1.38;;;1.23;;
14592;SDS011;7383;52.354;9.756;2023-03-16T20:01:22;1.73;;;1.50;;
14592;SDS011;7383;52.354;9.756;2023-03-16T20:03:51;1.33;;;1.30;;
14592;SDS011;7383;52.354;9.756;2023-03-16T20:06:56;1.60;;;1.50;;
14592;SDS011;7383;52.354;9.756;2023-03-16T20:09:51;1.70;;;1.15;;
14592;SDS011;7383;52.354;9.756;2023-03-16T20:15:16;1.35;;;1.30;;
14592;SDS011;7383;52.354;9.756;2023-03-16T20:18:01;1.20;;;1.10;;
14592;SDS011;7383;52.354;9.756;2023-03-16T20:20:29;1.30;;;1.20;;
14592;SDS011;7383;52.354;9.756;2023-03-16T20:22:57;1.13;;;1.05;;
14592;SDS011;7383;52.354;9.756;2023-03-16T20:25:28;1.40;;;1.35;;
14592;SDS011;7383;52.354;9.756;2023-03-16T20:27:55;1.98;;;1.48;;
14592;SDS011;7383;52.354;9.756;2023-03-16T20:30:27;1.60;;;1.50;;
14592;SDS011;7383;52.354;9.756;2023-03-16T20:33:09;1.70;;;1.60;;
14592;SDS011;7383;52.354;9.756;2023-03-16T20:35:38;1.50;;;1.40;;
14592;SDS011;7383;52.354;9.756;2023-03-16T20:38:08;1.70;;;1.42;;
14592;SDS011;7383;52.354;9.756;2023-03-16T20:40:38;1.60;;;1.50;;
14592;SDS011;7383;52.354;9.756;2023-03-16T20:43:09;1.58;;;1.48;;
14592;SDS011;7383;52.354;9.756;2023-03-16T20:45:46;1.70;;;1.55;;
14592;SDS011;7383;52.354;9.756;2023-03-16T20:48:16;1.80;;;1.70;;
14592;SDS011;7383;52.354;9.756;2023-03-16T20:50:45;1.67;;;1.58;;
14592;SDS011;7383;52.354;9.756;2023-03-16T20:53:12;1.50;;;1.42;;
14592;SDS011;7383;52.354;9.756;2023-03-16T20:55:38;1.58;;;1.48;;
14592;SDS011;7383;52.354;9.756;2023-03-16T20:58:12;1.60;;;1.50;;
14592;SDS011;7383;52.354;9.756;2023-03-16T21:00:48;1.67;;;1.40;;
14592;SDS011;7383;52.354;9.756;2023-03-16T21:03:16;2.10;;;1.70;;
14592;SDS011;7383;52.354;9.756;2023-03-16T21:05:43;1.40;;;1.30;;
14592;SDS011;7383;52.354;9.756;2023-03-16T21:08:10;1.60;;;1.50;;
14592;SDS011;7383;52.354;9.756;2023-03-16T21:10:40;1.50;;;1.40;;
14592;SDS011;7383;52.354;9.756;2023-03-16T21:13:28;1.45;;;1.35;;
14592;SDS011;7383;52.354;9.756;2023-03-16T21:18:50;1.20;;;1.20;;
14592;SDS011;7383;52.354;9.756;2023-03-16T21:21:37;1.50;;;1.40;;
14592;SDS011;7383;52.354;9.756;2023-03-16T21:24:12;1.25;;;1.15;;
14592;SDS011;7383;52.354;9.756;2023-03-16T21:27:05;1.65;;;1.55;;
14592;SDS011;7383;52.354;9.756;2023-03-16T21:29:39;1.55;;;1.45;;
14592;SDS011;7383;52.354;9.756;2023-03-16T21:32:23;1.10;;;1.10;;
14592;SDS011;7383;52.354;9.756;2023-03-16T21:38:15;1.80;;;1.20;;
14592;SDS011;7383;52.354;9.756;2023-03-16T22:24:16;1.48;;;1.38;;
14592;SDS011;7383;52.354;9.756;2023-03-16T22:27:07;2.05;;;1.73;;
14592;SDS011;7383;52.354;9.756;2023-03-16T22:29:58;1.73;;;1.63;;
14592;SDS011;7383;52.354;9.756;2023-03-16T22:32:35;1.42;;;1.33;;
14592;SDS011;7383;52.354;9.756;2023-03-16T22:35:02;1.90;;;1.80;;
14592;SDS011;7383;52.354;9.756;2023-03-16T22:37:30;1.83;;;1.73;;
14592;SDS011;7383;52.354;9.756;2023-03-16T22:40:02;1.70;;;1.60;;
14592;SDS011;7383;52.354;9.756;2023-03-16T22:42:32;1.70;;;1.60;;
14592;SDS011;7383;52.354;9.756;2023-03-16T22:45:12;1.70;;;1.60;;
14592;SDS011;7383;52.354;9.756;2023-03-16T22:47:59;1.73;;;1.63;;